Time;durP1;ratioP1;P1;durP2;ratioP2;P2;SDS_P1;SDS_P2;PMS_P1;PMS_P2;Temp;Humidity;BMP_temperature;BMP_pressure;BME280_temperature;BME280_humidity;BME280_pressure;Samples;Min_cycle;Max_cycle;Signal;HPM_P1;HPM_P2
2022/12/09 00:01:56;;;;;;;614.33;66.17;;;;;;;-0.94;100.00;100465.16;4959798;28;20639;-74
2022/12/09 00:04:22;;;;;;;816.73;66.63;;;;;;;-0.98;100.00;100459.19;4957521;28;20031;-74
2022/12/09 00:06:47;;;;;;;838.03;75.80;;;;;;;-0.98;100.00;100453.88;4974149;28;20491;-74
2022/12/09 00:09:16;;;;;;;643.73;58.77;;;;;;;-0.99;100.00;100462.78;4963463;28;20034;-74
2022/12/09 00:11:42;;;;;;;696.77;64.73;;;;;;;-1.15;100.00;100462.03;4964468;28;20038;-74
2022/12/09 00:14:10;;;;;;;471.80;51.47;;;;;;;-1.02;100.00;100462.97;4969213;28;20026;-74
2022/12/09 00:16:36;;;;;;;937.27;73.70;;;;;;;-1.22;100.00;100466.00;4975774;28;20045;-74
2022/12/09 00:19:01;;;;;;;815.87;61.80;;;;;;;-1.19;100.00;100465.81;4975490;28;20395;-74
2022/12/09 00:21:30;;;;;;;560.93;55.50;;;;;;;-1.13;100.00;100465.44;4969413;28;20113;-74
2022/12/09 00:23:58;;;;;;;640.97;62.30;;;;;;;-1.20;100.00;100464.09;4975206;28;20030;-75
2022/12/09 00:26:25;;;;;;;884.53;87.30;;;;;;;-1.27;100.00;100462.78;4967649;28;20026;-74
2022/12/09 00:28:52;;;;;;;460.93;58.53;;;;;;;-1.02;100.00;100468.28;4967614;28;20125;-74
2022/12/09 00:31:23;;;;;;;623.63;70.10;;;;;;;-0.88;100.00;100470.94;4967452;28;20030;-74
2022/12/09 00:33:54;;;;;;;543.20;57.15;;;;;;;-1.08;100.00;100474.00;4967355;28;20035;-74
2022/12/09 00:36:20;;;;;;;375.58;49.88;;;;;;;-1.07;100.00;100470.38;4976101;28;20062;-74
2022/12/09 00:38:46;;;;;;;281.47;49.20;;;;;;;-0.98;100.00;100469.84;4974679;28;20513;-74
2022/12/09 00:41:13;;;;;;;477.93;59.23;;;;;;;-0.95;100.00;100474.09;4974153;28;20022;-75
2022/12/09 00:43:39;;;;;;;512.30;60.17;;;;;;;-0.97;100.00;100476.84;4975791;28;20018;-74
2022/12/09 00:46:05;;;;;;;486.00;62.03;;;;;;;-0.83;100.00;100474.19;4975018;28;20026;-74
2022/12/09 00:48:33;;;;;;;548.10;65.60;;;;;;;-0.83;100.00;100471.53;4967772;28;20025;-74
2022/12/09 00:50:59;;;;;;;660.23;57.73;;;;;;;-0.82;100.00;100481.19;4992259;28;20064;-74
2022/12/09 00:53:24;;;;;;;490.23;56.93;;;;;;;-1.07;100.00;100486.31;4975332;28;20014;-74
2022/12/09 00:55:50;;;;;;;474.07;55.40;;;;;;;-1.07;100.00;100481.00;4974969;28;20024;-74
2022/12/09 00:58:15;;;;;;;417.70;56.73;;;;;;;-0.94;100.00;100487.28;4975646;28;20024;-74
2022/12/09 01:00:40;;;;;;;500.07;60.90;;;;;;;-0.99;100.00;100489.34;4974924;28;20026;-75
2022/12/09 01:03:10;;;;;;;395.03;59.67;;;;;;;-1.00;100.00;100487.66;4974817;28;20133;-74
2022/12/09 01:05:35;;;;;;;710.33;76.67;;;;;;;-1.02;100.00;100489.56;4975522;28;20041;-74
2022/12/09 01:08:00;;;;;;;657.67;76.63;;;;;;;-1.28;100.00;100490.28;4975041;28;20018;-74
2022/12/09 01:10:26;;;;;;;763.53;83.90;;;;;;;-1.10;100.00;100479.41;4966343;28;20033;-74
2022/12/09 01:12:51;;;;;;;622.13;78.77;;;;;;;-1.15;100.00;100488.59;4975221;28;20022;-76
2022/12/09 01:15:16;;;;;;;630.63;75.93;;;;;;;-1.25;100.00;100496.25;4974902;28;20022;-74
2022/12/09 01:17:42;;;;;;;620.50;80.13;;;;;;;-1.21;100.00;100496.94;4974723;28;20069;-74
2022/12/09 01:20:08;;;;;;;499.33;68.20;;;;;;;-1.15;100.00;100504.53;4975273;28;20018;-74
2022/12/09 01:22:35;;;;;;;382.70;64.80;;;;;;;-0.85;100.00;100504.44;4974847;28;20019;-74
2022/12/09 01:25:01;;;;;;;614.50;83.20;;;;;;;-1.06;100.00;100503.09;4974997;28;20044;-73
2022/12/09 01:27:29;;;;;;;655.40;82.53;;;;;;;-0.87;100.00;100509.84;4974356;28;20177;-74
2022/12/09 01:29:54;;;;;;;532.67;74.80;;;;;;;-0.97;100.00;100503.41;4974885;28;20027;-74
2022/12/09 01:32:20;;;;;;;416.93;68.83;;;;;;;-0.86;100.00;100500.94;4974483;28;20037;-75
2022/12/09 01:34:45;;;;;;;446.80;68.83;;;;;;;-0.84;100.00;100493.75;4975219;28;20109;-74
2022/12/09 01:37:10;;;;;;;503.93;69.47;;;;;;;-0.95;100.00;100501.50;4974734;28;20026;-74
2022/12/09 01:39:36;;;;;;;528.63;76.03;;;;;;;-0.95;100.00;100504.16;4973839;28;20106;-74
2022/12/09 01:42:02;;;;;;;481.87;76.33;;;;;;;-0.78;100.00;100503.16;4972089;28;20129;-73
2022/12/09 01:44:31;;;;;;;422.00;71.50;;;;;;;-0.86;100.00;100498.28;4972445;28;20026;-74
2022/12/09 01:46:58;;;;;;;483.80;79.07;;;;;;;-0.95;100.00;100498.84;4984089;28;20025;-74
2022/12/09 01:49:30;;;;;;;442.50;72.77;;;;;;;-0.86;100.00;100500.94;4975453;28;20034;-73
2022/12/09 01:52:08;;;;;;;;;;;;;;;-0.97;100.00;100508.72;4991491;28;20022;-73
2022/12/09 01:54:34;;;;;;;442.73;74.60;;;;;;;-0.98;100.00;100501.72;4975169;28;19914;-74
2022/12/09 01:56:59;;;;;;;293.50;63.83;;;;;;;-0.83;100.00;100503.41;4974861;28;20029;-73
2022/12/09 01:59:26;;;;;;;394.40;74.03;;;;;;;-0.78;100.00;100496.94;4974922;28;20018;-74
2022/12/09 02:01:57;;;;;;;362.90;71.20;;;;;;;-0.55;100.00;100504.34;4966534;28;20061;-73
2022/12/09 02:04:23;;;;;;;323.47;66.23;;;;;;;-0.41;100.00;100491.03;4975157;28;20026;-73
2022/12/09 02:06:48;;;;;;;417.93;77.43;;;;;;;-0.39;100.00;100494.47;4991419;28;20353;-73
2022/12/09 02:09:14;;;;;;;539.07;83.97;;;;;;;-0.30;100.00;100499.19;4990251;28;20022;-74
2022/12/09 02:11:56;;;;;;;301.00;65.57;;;;;;;-0.26;100.00;100494.53;4974517;28;20368;-73
2022/12/09 02:14:29;;;;;;;340.87;69.53;;;;;;;-0.28;100.00;100491.94;4976773;28;20502;-74
2022/12/09 02:17:25;;;;;;;391.97;71.30;;;;;;;-0.27;100.00;100488.34;4966310;28;20031;-73
2022/12/09 02:20:06;;;;;;;362.97;71.17;;;;;;;-0.26;100.00;100478.56;4957767;28;20396;-73
2022/12/09 02:22:39;;;;;;;471.07;79.80;;;;;;;-0.25;100.00;100485.59;4969477;28;20022;-73
2022/12/09 02:25:23;;;;;;;524.97;77.23;;;;;;;-0.10;100.00;100489.91;4974853;28;20468;-73
2022/12/09 02:28:07;;;;;;;308.17;61.53;;;;;;;0.29;100.00;100479.41;4975178;28;20444;-74
2022/12/09 02:30:41;;;;;;;333.67;65.00;;;;;;;0.08;100.00;100471.91;4979491;28;20022;-73
2022/12/09 02:33:28;;;;;;;296.30;60.03;;;;;;;-0.01;100.00;100467.16;4974484;28;20026;-74
2022/12/09 02:36:04;;;;;;;326.07;62.80;;;;;;;-0.04;100.00;100472.69;4974344;28;20027;-73
2022/12/09 02:38:32;;;;;;;400.07;72.20;;;;;;;-0.05;100.00;100471.00;4975883;28;20045;-73
2022/12/09 02:41:01;;;;;;;322.10;64.70;;;;;;;0.16;100.00;100474.91;4978294;28;20061;-73
2022/12/09 02:43:30;;;;;;;303.03;63.77;;;;;;;0.12;100.00;100462.75;4978363;28;20041;-73
2022/12/09 02:45:58;;;;;;;291.50;60.40;;;;;;;0.21;100.00;100467.47;4975200;28;20037;-73
2022/12/09 02:48:29;;;;;;;404.27;66.87;;;;;;;0.17;100.00;100460.63;4979728;28;20018;-75
2022/12/09 02:50:56;;;;;;;393.43;74.10;;;;;;;0.26;100.00;100465.34;4977913;28;20045;-76
2022/12/09 02:53:24;;;;;;;432.83;74.37;;;;;;;0.27;100.00;100458.22;4978332;28;20034;-73
2022/12/09 02:55:52;;;;;;;322.10;62.93;;;;;;;0.16;100.00;100466.91;4977988;28;20026;-73
2022/12/09 02:58:18;;;;;;;295.43;65.40;;;;;;;0.10;100.00;100463.81;4977683;28;20026;-74
2022/12/09 03:00:43;;;;;;;251.97;56.27;;;;;;;0.26;100.00;100460.03;4978134;28;20056;-73
2022/12/09 03:03:13;;;;;;;229.93;57.73;;;;;;;0.38;100.00;100462.81;4977590;28;20018;-73
2022/12/09 03:05:54;;;;;;;170.70;48.07;;;;;;;0.47;100.00;100454.22;4977398;28;20034;-73
2022/12/09 03:08:51;;;;;;;177.90;50.77;;;;;;;0.52;100.00;100460.06;4977705;28;20029;-73
2022/12/09 03:11:23;;;;;;;189.77;50.90;;;;;;;0.37;100.00;100466.44;4970031;28;20273;-73
2022/12/09 03:14:00;;;;;;;;;;;;;;;0.46;100.00;100460.50;4978084;28;20077;-73
2022/12/09 03:16:41;;;;;;;222.47;52.83;;;;;;;0.56;100.00;100458.91;4975568;28;19910;-73
2022/12/09 03:19:21;;;;;;;175.27;51.90;;;;;;;0.24;100.00;100467.25;4969557;28;20019;-73
2022/12/09 03:21:51;;;;;;;210.57;54.33;;;;;;;0.36;100.00;100465.59;4977322;28;20018;-74
2022/12/09 03:24:21;;;;;;;184.27;51.77;;;;;;;0.56;100.00;100461.56;4961897;28;20387;-73
2022/12/09 03:26:49;;;;;;;147.53;45.93;;;;;;;0.68;100.00;100460.72;4977256;28;20038;-73
2022/12/09 03:29:18;;;;;;;183.87;50.37;;;;;;;0.44;100.00;100457.06;4966556;28;20022;-74
2022/12/09 03:31:45;;;;;;;163.23;48.13;;;;;;;0.47;100.00;100456.88;4973290;28;20026;-74
2022/12/09 03:34:15;;;;;;;161.03;51.10;;;;;;;0.33;100.00;100454.31;4980445;28;20014;-73
2022/12/09 03:36:43;;;;;;;207.07;55.17;;;;;;;0.39;100.00;100449.41;4981371;28;20032;-73
2022/12/09 03:39:13;;;;;;;149.27;47.83;;;;;;;0.59;100.00;100456.03;4977283;28;20030;-73
2022/12/09 03:41:44;;;;;;;129.40;43.47;;;;;;;0.59;100.00;100450.72;4976998;28;20030;-74
2022/12/09 03:44:18;;;;;;;132.98;45.90;;;;;;;0.77;100.00;100444.09;4977168;28;20026;-73
2022/12/09 03:46:44;;;;;;;162.03;48.63;;;;;;;0.65;100.00;100442.31;4976734;28;20126;-74
2022/12/09 03:49:10;;;;;;;171.60;49.70;;;;;;;0.50;100.00;100440.69;4976635;28;20037;-74
2022/12/09 03:51:44;;;;;;;112.10;40.67;;;;;;;0.37;100.00;100445.97;4977032;28;20022;-73
2022/12/09 03:54:27;;;;;;;125.33;43.63;;;;;;;0.49;100.00;100449.63;4976859;28;20041;-73
2022/12/09 03:56:55;;;;;;;120.93;40.67;;;;;;;0.63;100.00;100441.53;4966514;28;20045;-73
2022/12/09 03:59:23;;;;;;;128.30;41.93;;;;;;;0.60;100.00;100441.75;4976848;28;20094;-74
2022/12/09 04:01:49;;;;;;;126.57;42.47;;;;;;;0.81;100.00;100440.28;4960318;28;20027;-74
2022/12/09 04:04:15;;;;;;;116.63;39.87;;;;;;;0.76;100.00;100430.88;4972695;28;20023;-74
2022/12/09 04:06:41;;;;;;;116.37;38.53;;;;;;;0.66;100.00;100436.03;4963513;28;20113;-74
2022/12/09 04:09:06;;;;;;;143.90;45.13;;;;;;;0.47;100.00;100430.25;4968149;28;20118;-75
2022/12/09 04:11:33;;;;;;;120.97;42.47;;;;;;;0.60;100.00;100431.13;4981287;28;20471;-74
2022/12/09 04:13:58;;;;;;;160.90;48.27;;;;;;;0.48;100.00;100431.94;4975568;28;20034;-74
2022/12/09 04:16:24;;;;;;;147.93;45.67;;;;;;;0.52;100.00;100433.41;4966004;28;20513;-74
2022/12/09 04:18:49;;;;;;;148.00;45.87;;;;;;;0.54;100.00;100437.72;4957308;28;20062;-74
2022/12/09 04:21:15;;;;;;;142.07;47.17;;;;;;;0.60;100.00;100430.25;4971197;28;20029;-74
2022/12/09 04:23:41;;;;;;;141.23;45.10;;;;;;;0.66;100.00;100430.69;4997458;28;20066;-74
2022/12/09 04:26:06;;;;;;;148.03;44.03;;;;;;;0.56;100.00;100440.25;4978093;28;20080;-74
2022/12/09 04:28:32;;;;;;;161.10;48.57;;;;;;;0.46;100.00;100434.72;4982280;28;20471;-73
2022/12/09 04:30:57;;;;;;;182.73;52.03;;;;;;;0.52;100.00;100438.75;4976935;28;20033;-73
2022/12/09 04:33:23;;;;;;;156.30;47.47;;;;;;;0.41;100.00;100436.84;4999784;28;20034;-73
2022/12/09 04:35:48;;;;;;;179.70;49.20;;;;;;;0.43;100.00;100439.38;4976241;28;20025;-73
2022/12/09 04:38:14;;;;;;;180.50;47.17;;;;;;;0.49;100.00;100433.66;4968091;28;20025;-73
2022/12/09 04:40:39;;;;;;;163.20;45.60;;;;;;;0.40;100.00;100435.13;4961713;28;20049;-73
2022/12/09 04:43:04;;;;;;;146.77;43.67;;;;;;;0.28;100.00;100443.09;4956232;28;20480;-74
2022/12/09 04:45:30;;;;;;;126.43;40.80;;;;;;;0.19;100.00;100442.75;4964851;28;20026;-73
2022/12/09 04:47:57;;;;;;;137.40;45.40;;;;;;;0.18;100.00;100440.19;4956522;28;20046;-73
2022/12/09 04:50:23;;;;;;;141.30;42.53;;;;;;;0.21;100.00;100451.50;4968925;28;20026;-73
2022/12/09 04:52:48;;;;;;;147.40;47.07;;;;;;;0.27;100.00;100444.91;4977671;28;20022;-73
2022/12/09 04:55:14;;;;;;;118.97;40.27;;;;;;;0.44;100.00;100441.94;4984256;28;20022;-73
2022/12/09 04:57:40;;;;;;;126.63;40.30;;;;;;;0.35;100.00;100441.72;4976077;28;20026;-73
2022/12/09 05:00:06;;;;;;;142.97;44.10;;;;;;;0.32;100.00;100447.25;4975481;28;20035;-73
2022/12/09 05:02:31;;;;;;;160.03;48.07;;;;;;;0.10;100.00;100454.00;4974723;28;20033;-73
2022/12/09 05:05:00;;;;;;;108.83;39.60;;;;;;;0.26;100.00;100449.38;4981155;28;20030;-73
2022/12/09 05:07:26;;;;;;;160.30;45.33;;;;;;;0.10;100.00;100448.69;4967351;28;20030;-73
2022/12/09 05:09:51;;;;;;;153.80;45.00;;;;;;;0.03;100.00;100447.38;4959685;28;20038;-73
2022/12/09 05:12:17;;;;;;;159.77;46.93;;;;;;;0.08;100.00;100449.75;4966462;28;20034;-73
2022/12/09 05:14:42;;;;;;;138.97;44.73;;;;;;;0.09;100.00;100452.31;4967982;28;20045;-73
2022/12/09 05:17:08;;;;;;;156.53;47.53;;;;;;;0.07;100.00;100448.91;4974910;28;20057;-73
2022/12/09 05:19:33;;;;;;;187.03;45.17;;;;;;;0.06;100.00;100448.97;4967481;28;20032;-73
2022/12/09 05:21:58;;;;;;;152.17;46.20;;;;;;;0.17;100.00;100447.31;4974830;28;20084;-73
2022/12/09 05:24:24;;;;;;;138.43;44.73;;;;;;;0.03;100.00;100452.72;4975263;28;20022;-73
2022/12/09 05:26:50;;;;;;;145.63;46.00;;;;;;;-0.01;100.00;100453.84;4974808;28;20445;-73
2022/12/09 05:29:15;;;;;;;174.67;50.20;;;;;;;-0.13;100.00;100449.34;4967538;28;20044;-72
2022/12/09 05:31:40;;;;;;;148.57;45.07;;;;;;;0.03;100.00;100458.03;4968890;28;20022;-72
2022/12/09 05:34:06;;;;;;;146.43;44.87;;;;;;;0.07;100.00;100459.56;4980975;28;20041;-71
2022/12/09 05:36:31;;;;;;;173.57;50.27;;;;;;;0.00;100.00;100450.28;4970049;28;20110;-75
2022/12/09 05:38:57;;;;;;;157.77;47.20;;;;;;;0.07;100.00;100451.56;4971909;28;20014;-74
2022/12/09 05:41:23;;;;;;;189.03;53.50;;;;;;;0.06;100.00;100447.16;4974340;28;20023;-74
2022/12/09 05:43:49;;;;;;;133.57;43.17;;;;;;;0.14;100.00;100444.88;4960064;28;20015;-74
2022/12/09 05:46:14;;;;;;;173.63;48.80;;;;;;;0.13;100.00;100443.19;4959439;28;20026;-75
2022/12/09 05:48:40;;;;;;;132.37;45.80;;;;;;;0.20;100.00;100443.63;4961211;28;20085;-72
2022/12/09 05:51:20;;;;;;;168.40;52.03;;;;;;;0.33;100.00;100448.97;4966593;28;20030;-75
2022/12/09 05:53:45;;;;;;;156.13;48.03;;;;;;;0.34;100.00;100445.34;4959679;28;20089;-75
2022/12/09 05:56:14;;;;;;;142.37;46.80;;;;;;;0.33;100.00;100443.66;4957163;28;20030;-74
2022/12/09 05:58:40;;;;;;;164.13;51.77;;;;;;;0.28;100.00;100443.09;4969170;28;20018;-74
2022/12/09 06:01:06;;;;;;;160.50;52.17;;;;;;;0.45;100.00;100442.78;4972338;28;20022;-75
2022/12/09 06:03:32;;;;;;;156.37;50.37;;;;;;;0.39;100.00;100443.22;4970964;28;20019;-74
2022/12/09 06:05:58;;;;;;;146.13;48.97;;;;;;;0.41;100.00;100436.84;4973948;28;20505;-74
2022/12/09 06:08:23;;;;;;;161.60;51.07;;;;;;;0.41;100.00;100441.31;4968437;28;20018;-74
2022/12/09 06:10:49;;;;;;;134.30;48.57;;;;;;;0.45;100.00;100438.31;4973961;28;20092;-74
2022/12/09 06:13:14;;;;;;;122.40;45.40;;;;;;;0.63;100.00;100446.88;4973623;28;20109;-75
2022/12/09 06:15:39;;;;;;;158.57;52.63;;;;;;;0.56;100.00;100434.94;4968931;28;20112;-76
2022/12/09 06:18:05;;;;;;;122.50;44.63;;;;;;;0.38;100.00;100446.84;4971773;28;20125;-74
2022/12/09 06:20:30;;;;;;;127.67;47.67;;;;;;;0.37;100.00;100445.13;4974028;28;20353;-74
2022/12/09 06:22:56;;;;;;;181.20;56.03;;;;;;;0.40;100.00;100444.94;4973310;28;20014;-74
2022/12/09 06:25:21;;;;;;;158.00;52.23;;;;;;;0.64;100.00;100448.56;4971256;28;20018;-75
2022/12/09 06:27:46;;;;;;;159.23;53.63;;;;;;;0.49;100.00;100444.31;4974118;28;20077;-72
2022/12/09 06:30:12;;;;;;;183.67;56.50;;;;;;;0.35;100.00;100447.91;4971489;28;20478;-73
2022/12/09 06:32:37;;;;;;;170.90;53.53;;;;;;;0.43;100.00;100439.38;4981468;28;20025;-72
2022/12/09 06:35:03;;;;;;;159.03;54.57;;;;;;;0.52;100.00;100444.06;4974986;28;20034;-72
2022/12/09 06:37:28;;;;;;;170.13;53.43;;;;;;;0.68;100.00;100455.41;4966090;28;20038;-72
2022/12/09 06:39:54;;;;;;;114.30;43.97;;;;;;;0.70;100.00;100452.63;4966467;28;20030;-72
2022/12/09 06:42:19;;;;;;;138.87;48.57;;;;;;;0.49;100.00;100444.31;4972860;28;20026;-74
2022/12/09 06:44:45;;;;;;;165.67;53.77;;;;;;;0.56;100.00;100442.06;4973557;28;20072;-74
2022/12/09 06:47:10;;;;;;;143.33;49.23;;;;;;;0.46;100.00;100447.19;4972768;28;20521;-74
2022/12/09 06:49:35;;;;;;;166.20;54.17;;;;;;;0.34;100.00;100434.69;4973410;28;20030;-75
2022/12/09 06:52:01;;;;;;;168.17;53.20;;;;;;;0.40;100.00;100442.28;4972754;28;20025;-75
2022/12/09 06:54:26;;;;;;;190.27;57.57;;;;;;;0.38;100.00;100436.19;4970780;28;20023;-74
2022/12/09 06:56:51;;;;;;;218.43;60.13;;;;;;;0.52;100.00;100444.06;4973087;28;20092;-75
2022/12/09 06:59:17;;;;;;;167.53;55.37;;;;;;;0.68;100.00;100444.75;4970904;28;20015;-75
2022/12/09 07:01:43;;;;;;;213.20;60.27;;;;;;;0.79;100.00;100444.88;4965448;28;20372;-75
2022/12/09 07:04:10;;;;;;;181.70;56.43;;;;;;;0.77;100.00;100454.75;4971423;28;20032;-75
2022/12/09 07:06:40;;;;;;;178.13;53.80;;;;;;;0.72;100.00;100451.59;4969017;28;20061;-75
2022/12/09 07:09:09;;;;;;;191.43;54.83;;;;;;;0.74;100.00;100448.81;4971314;28;20054;-75
2022/12/09 07:11:35;;;;;;;160.13;55.13;;;;;;;0.79;100.00;100452.88;4968928;28;20050;-75
2022/12/09 07:14:02;;;;;;;196.13;58.10;;;;;;;0.59;100.00;100449.84;4964839;28;20061;-72
2022/12/09 07:16:28;;;;;;;234.50;64.60;;;;;;;0.57;100.00;100446.44;4964636;28;20085;-72
2022/12/09 07:18:53;;;;;;;219.83;59.50;;;;;;;0.31;100.00;100456.19;4973995;28;20014;-72
2022/12/09 07:21:20;;;;;;;210.90;62.97;;;;;;;0.31;100.00;100466.84;4973423;28;20033;-72
2022/12/09 07:23:46;;;;;;;185.13;56.47;;;;;;;0.10;100.00;100453.16;4968311;28;20034;-72
2022/12/09 07:26:12;;;;;;;227.10;63.70;;;;;;;0.18;100.00;100451.69;4975601;28;20080;-72
2022/12/09 07:28:41;;;;;;;206.20;59.87;;;;;;;0.31;100.00;100461.50;4973452;28;20113;-72
2022/12/09 07:31:16;;;;;;;210.87;58.83;;;;;;;0.13;100.00;100453.81;4977147;28;20029;-74
2022/12/09 07:33:41;;;;;;;210.00;58.37;;;;;;;0.14;100.00;100460.00;4977037;28;20014;-75
2022/12/09 07:36:07;;;;;;;213.93;59.07;;;;;;;0.15;100.00;100462.56;4969475;28;20029;-74
2022/12/09 07:38:32;;;;;;;212.03;58.97;;;;;;;-0.02;100.00;100465.47;4977516;28;20022;-74
2022/12/09 07:41:07;;;;;;;195.77;58.43;;;;;;;-0.12;100.00;100464.38;4977432;28;20029;-74
2022/12/09 07:43:34;;;;;;;186.37;55.03;;;;;;;-0.03;100.00;100474.41;4969642;28;20019;-74
2022/12/09 07:46:06;;;;;;;203.97;57.67;;;;;;;0.08;100.00;100476.38;4972556;28;20117;-74
2022/12/09 07:48:32;;;;;;;167.17;51.03;;;;;;;0.17;100.00;100476.59;4957980;28;20058;-74
2022/12/09 07:51:01;;;;;;;169.67;50.63;;;;;;;0.20;100.00;100479.06;4965976;28;20042;-74
2022/12/09 07:53:27;;;;;;;167.93;50.27;;;;;;;0.15;100.00;100483.84;4968628;28;20081;-75
2022/12/09 07:55:53;;;;;;;159.60;49.47;;;;;;;0.22;100.00;100481.63;4970054;28;20053;-74
2022/12/09 07:58:19;;;;;;;150.10;48.57;;;;;;;0.32;100.00;100492.50;4970138;28;20046;-75
2022/12/09 08:00:44;;;;;;;184.17;53.43;;;;;;;0.22;100.00;100490.47;4974399;28;20395;-75
2022/12/09 08:03:11;;;;;;;148.17;48.13;;;;;;;0.29;100.00;100482.94;4968481;28;20034;-75
2022/12/09 08:05:44;;;;;;;170.37;51.27;;;;;;;0.21;100.00;100488.75;4977058;28;20487;-74
2022/12/09 08:08:09;;;;;;;178.77;52.23;;;;;;;0.29;100.00;100490.06;4960779;28;20058;-75
2022/12/09 08:10:35;;;;;;;173.40;51.23;;;;;;;0.34;100.00;100493.28;4965240;28;20046;-75
2022/12/09 08:13:00;;;;;;;168.53;49.53;;;;;;;0.35;100.00;100500.31;4961220;28;20019;-74
2022/12/09 08:15:25;;;;;;;135.27;45.20;;;;;;;0.52;100.00;100497.34;4983717;28;20023;-75
2022/12/09 08:17:51;;;;;;;184.27;54.37;;;;;;;0.63;100.00;100499.28;4970213;28;20068;-75
2022/12/09 08:20:16;;;;;;;154.40;50.27;;;;;;;0.52;100.00;100500.00;4974495;28;20054;-75
2022/12/09 08:22:41;;;;;;;154.07;49.10;;;;;;;0.35;100.00;100489.66;4968560;28;20018;-75
2022/12/09 08:25:07;;;;;;;155.43;50.17;;;;;;;0.28;100.00;100493.69;4967956;28;20506;-75
2022/12/09 08:27:32;;;;;;;162.57;50.50;;;;;;;0.11;100.00;100492.97;4968223;28;20476;-75
2022/12/09 08:29:59;;;;;;;151.73;48.03;;;;;;;0.38;100.00;100494.75;4967792;28;20434;-75
2022/12/09 08:32:24;;;;;;;164.17;49.87;;;;;;;0.20;100.00;100487.06;4973958;28;20030;-75
2022/12/09 08:34:49;;;;;;;167.70;50.70;;;;;;;0.30;100.00;100491.75;4975841;28;20029;-75
2022/12/09 08:37:15;;;;;;;150.63;50.70;;;;;;;0.28;100.00;100493.69;4976769;28;20033;-75
2022/12/09 08:39:40;;;;;;;144.63;44.93;;;;;;;0.23;100.00;100486.84;4975886;28;20018;-75
2022/12/09 08:42:06;;;;;;;152.80;47.73;;;;;;;0.28;100.00;100488.38;4967385;28;20400;-75
2022/12/09 08:44:31;;;;;;;128.93;45.10;;;;;;;0.40;100.00;100484.88;4976304;28;20050;-75
2022/12/09 08:46:56;;;;;;;130.63;45.37;;;;;;;0.52;100.00;100486.69;4971915;28;20033;-75
2022/12/09 08:49:23;;;;;;;154.67;48.80;;;;;;;0.35;100.00;100489.66;4959965;28;20054;-75
2022/12/09 08:51:50;;;;;;;146.00;45.53;;;;;;;0.42;100.00;100485.63;4970375;28;20022;-75
2022/12/09 08:54:16;;;;;;;168.13;49.83;;;;;;;0.35;100.00;100494.97;4973808;28;20033;-75
2022/12/09 08:56:47;;;;;;;138.33;45.17;;;;;;;0.32;100.00;100493.34;4967998;28;20022;-75
2022/12/09 08:59:13;;;;;;;168.27;49.13;;;;;;;0.48;100.00;100495.88;4976025;28;20029;-75
2022/12/09 09:01:39;;;;;;;126.97;43.20;;;;;;;0.57;100.00;100479.25;4975746;28;20044;-75
2022/12/09 09:04:06;;;;;;;138.70;45.07;;;;;;;0.38;100.00;100484.09;4975831;28;20118;-75
2022/12/09 09:06:32;;;;;;;134.10;46.43;;;;;;;0.41;100.00;100483.91;4972148;28;20026;-75
2022/12/09 09:08:58;;;;;;;137.37;45.17;;;;;;;0.33;100.00;100488.91;4963332;28;20022;-75
2022/12/09 09:11:24;;;;;;;115.73;42.57;;;;;;;0.52;100.00;100492.03;4975342;28;20026;-75
2022/12/09 09:13:50;;;;;;;128.47;42.37;;;;;;;0.52;100.00;100492.03;4969795;28;20027;-75
2022/12/09 09:16:21;;;;;;;133.47;43.60;;;;;;;0.54;100.00;100484.81;4971918;28;20076;-75
2022/12/09 09:18:47;;;;;;;113.78;40.22;;;;;;;0.67;100.00;100490.16;4955890;28;20034;-75
2022/12/09 09:21:15;;;;;;;103.17;38.87;;;;;;;0.81;100.00;100490.91;4968233;28;20037;-76
2022/12/09 09:23:41;;;;;;;105.77;40.97;;;;;;;0.82;100.00;100484.59;4981761;28;20110;-75
2022/12/09 09:26:11;;;;;;;105.53;39.60;;;;;;;0.69;100.00;100488.22;4967004;28;20050;-75
2022/12/09 09:28:37;;;;;;;103.60;40.03;;;;;;;0.83;100.00;100488.13;4967362;28;20116;-75
2022/12/09 09:31:05;;;;;;;97.47;38.90;;;;;;;0.82;100.00;100483.75;4975613;28;20054;-75
2022/12/09 09:33:31;;;;;;;99.90;38.23;;;;;;;0.81;100.00;100488.25;4970036;28;20441;-76
2022/12/09 09:35:57;;;;;;;92.73;37.73;;;;;;;0.78;100.00;100488.47;4980229;28;20026;-75
2022/12/09 09:38:24;;;;;;;90.43;34.03;;;;;;;0.89;100.00;100484.19;4974946;28;20114;-75
2022/12/09 09:40:50;;;;;;;78.57;34.70;;;;;;;0.81;100.00;100477.59;4974606;28;20018;-75
2022/12/09 09:43:21;;;;;;;84.33;34.43;;;;;;;0.78;100.00;100488.47;4966682;28;20097;-75
2022/12/09 09:45:47;;;;;;;86.43;33.83;;;;;;;1.00;100.00;100486.97;4971725;28;20030;-76
2022/12/09 09:48:18;;;;;;;76.57;33.27;;;;;;;1.00;100.00;100487.81;4967145;28;20077;-76
2022/12/09 09:51:02;;;;;;;72.57;29.13;;;;;;;1.15;100.00;100483.22;4979090;28;20060;-74
2022/12/09 09:53:31;;;;;;;79.00;33.07;;;;;;;1.24;100.00;100479.94;4963121;28;20780;-73
2022/12/09 09:56:20;;;;;;;79.50;34.13;;;;;;;1.38;100.00;100470.09;4973224;28;20018;-73
2022/12/09 09:59:14;;;;;;;80.93;31.57;;;;;;;1.46;100.00;100486.41;4956522;28;20026;-73
2022/12/09 10:01:43;;;;;;;72.37;32.47;;;;;;;1.06;100.00;100486.53;4964905;28;20025;-73
2022/12/09 10:04:27;;;;;;;91.70;34.30;;;;;;;1.21;100.00;100485.47;4968428;28;20037;-73
2022/12/09 10:07:12;;;;;;;84.33;33.03;;;;;;;1.06;100.00;100491.88;4974788;28;20032;-73
2022/12/09 10:10:04;;;;;;;77.27;32.83;;;;;;;0.89;100.00;100478.84;4975990;28;20033;-73
2022/12/09 10:12:35;;;;;;;82.97;33.80;;;;;;;0.88;100.00;100480.69;4960562;28;20034;-73
2022/12/09 10:15:21;;;;;;;90.90;35.42;;;;;;;0.87;100.00;100473.66;4963248;28;20030;-73
2022/12/09 10:18:15;;;;;;;92.37;36.70;;;;;;;1.01;100.00;100472.69;4967418;28;20026;-73
2022/12/09 10:20:41;;;;;;;74.27;31.07;;;;;;;1.05;100.00;100471.53;4967138;28;20022;-73
2022/12/09 10:23:13;;;;;;;81.53;33.37;;;;;;;1.04;100.00;100472.44;4974873;28;20061;-73
2022/12/09 10:25:52;;;;;;;84.10;34.50;;;;;;;0.90;100.00;100470.75;4963888;28;20121;-73
2022/12/09 10:28:35;;;;;;;75.43;31.37;;;;;;;1.05;100.00;100474.19;4967696;28;20026;-74
2022/12/09 10:31:01;;;;;;;73.33;33.60;;;;;;;1.08;100.00;100468.63;4969962;28;20034;-74
2022/12/09 10:33:30;;;;;;;72.30;31.53;;;;;;;1.27;100.00;100468.19;4976387;28;20018;-74
2022/12/09 10:35:56;;;;;;;68.77;30.67;;;;;;;1.18;100.00;100469.69;4970231;28;20121;-73
2022/12/09 10:38:23;;;;;;;77.27;32.23;;;;;;;1.39;100.00;100461.97;4974063;28;20038;-74
2022/12/09 10:41:06;;;;;;;72.30;32.30;;;;;;;1.31;100.00;100464.34;4976026;28;20113;-73
2022/12/09 10:43:37;;;;;;;74.07;31.53;;;;;;;1.44;100.00;100464.31;4976630;28;20022;-73
2022/12/09 10:46:27;;;;;;;72.40;32.30;;;;;;;1.40;100.00;100468.16;4974093;28;20027;-73
2022/12/09 10:48:57;;;;;;;69.30;30.17;;;;;;;1.54;100.00;100460.03;4970701;28;20026;-73
2022/12/09 10:51:28;;;;;;;64.33;30.77;;;;;;;1.43;100.00;100467.94;4972512;28;20061;-73
2022/12/09 10:53:58;;;;;;;70.93;30.52;;;;;;;1.59;100.00;100457.88;4973065;28;20085;-73
2022/12/09 10:56:32;;;;;;;72.07;30.00;;;;;;;1.71;100.00;100457.00;4972202;28;20022;-73
2022/12/09 10:59:23;;;;;;;61.97;29.70;;;;;;;1.46;100.00;100463.25;4969878;28;20014;-74
2022/12/09 11:01:59;;;;;;;70.63;29.10;;;;;;;1.44;100.00;100464.31;4975108;28;20030;-74
2022/12/09 11:04:28;;;;;;;69.07;30.73;;;;;;;1.62;100.00;100463.81;4980404;28;20029;-74
2022/12/09 11:06:57;;;;;;;58.70;27.93;;;;;;;1.42;100.00;100466.22;4976786;28;20057;-74
2022/12/09 11:09:27;;;;;;;66.07;28.20;;;;;;;1.41;100.00;100460.03;4978701;28;20077;-74